Time;durP1;ratioP1;P1;durP2;ratioP2;P2;SDS_P1;SDS_P2;PMS_P1;PMS_P2;Temp;Humidity;BMP_temperature;BMP_pressure;BME280_temperature;BME280_humidity;BME280_pressure;Samples;Min_cycle;Max_cycle;Signal;HPM_P1;HPM_P2
2023/10/25 00:01:50;;;;;;;2.33;1.87;;;9.50;99.90;;;;;;4937132;29;20191;-64
2023/10/25 00:04:17;;;;;;;1.73;1.63;;;9.60;99.90;;;;;;4949376;28;20202;-63
2023/10/25 00:06:44;;;;;;;5.33;2.40;;;9.60;99.90;;;;;;4948324;29;20199;-63
2023/10/25 00:09:11;;;;;;;3.37;2.43;;;9.50;99.90;;;;;;4951165;29;20209;-64
2023/10/25 00:11:38;;;;;;;3.77;1.90;;;9.50;99.90;;;;;;4949194;28;20246;-64
2023/10/25 00:14:05;;;;;;;2.90;1.87;;;9.40;99.90;;;;;;4949241;29;20205;-64
2023/10/25 00:16:32;;;;;;;4.33;2.17;;;9.40;99.90;;;;;;4929607;29;20211;-63
2023/10/25 00:18:59;;;;;;;4.17;1.97;;;9.30;99.90;;;;;;4933620;29;20564;-63
2023/10/25 00:21:26;;;;;;;5.37;2.40;;;9.40;99.90;;;;;;4948573;29;20940;-63
2023/10/25 00:23:53;;;;;;;5.30;2.37;;;9.40;99.90;;;;;;4932284;29;20203;-62
2023/10/25 00:26:20;;;;;;;4.73;1.80;;;9.40;99.90;;;;;;4950788;29;20195;-63
2023/10/25 00:28:51;;;;;;;2.40;2.20;;;9.30;99.90;;;;;;4931803;29;20691;-61
2023/10/25 00:31:18;;;;;;;2.83;2.63;;;9.40;99.90;;;;;;4949871;29;20199;-61
2023/10/25 00:33:45;;;;;;;2.83;2.13;;;9.30;99.90;;;;;;4938286;29;20226;-61
2023/10/25 00:36:12;;;;;;;3.33;2.10;;;9.20;99.90;;;;;;4933398;29;20195;-61
2023/10/25 00:38:39;;;;;;;3.60;2.53;;;9.20;99.90;;;;;;4949912;28;20215;-61
2023/10/25 00:41:11;;;;;;;2.80;2.17;;;9.20;99.90;;;;;;4942211;28;20668;-61
2023/10/25 00:43:38;;;;;;;5.20;2.00;;;9.20;99.90;;;;;;4949978;28;20643;-62
2023/10/25 00:46:14;;;;;;;3.53;1.80;;;9.20;99.90;;;;;;4963156;28;20298;-62
2023/10/25 00:48:47;;;;;;;2.67;1.87;;;9.10;99.90;;;;;;4963709;28;20198;-63
2023/10/25 00:51:15;;;;;;;3.87;2.43;;;9.10;99.90;;;;;;4955935;28;20257;-63
2023/10/25 00:53:46;;;;;;;7.23;2.20;;;9.10;99.90;;;;;;4945458;29;20187;-64
2023/10/25 00:56:14;;;;;;;5.10;2.23;;;9.10;99.90;;;;;;4942993;28;20285;-63
2023/10/25 00:58:44;;;;;;;4.20;2.40;;;9.10;99.90;;;;;;4928908;29;20224;-63
2023/10/25 01:01:14;;;;;;;5.53;2.50;;;9.00;99.90;;;;;;4943767;28;20568;-63
2023/10/25 01:03:42;;;;;;;4.53;1.83;;;9.00;99.90;;;;;;4964762;28;20763;-62
2023/10/25 01:06:09;;;;;;;4.00;2.20;;;9.00;99.90;;;;;;4949587;28;20261;-63
2023/10/25 01:08:36;;;;;;;2.87;2.13;;;9.00;99.90;;;;;;4946689;28;20199;-63
2023/10/25 01:11:04;;;;;;;3.47;2.33;;;8.90;99.90;;;;;;4946404;28;20209;-62
2023/10/25 01:13:31;;;;;;;6.93;2.10;;;8.90;99.90;;;;;;4946939;28;20773;-62
2023/10/25 01:15:58;;;;;;;7.63;2.67;;;8.90;99.90;;;;;;4949474;28;20207;-62
2023/10/25 01:18:25;;;;;;;3.70;2.17;;;8.80;99.90;;;;;;4947057;28;20222;-62
2023/10/25 01:20:52;;;;;;;5.60;2.50;;;8.80;1.00;;;;;;4931352;29;20198;-62
2023/10/25 01:23:19;;;;;;;2.50;2.30;;;8.80;1.00;;;;;;4946088;28;20253;-61
2023/10/25 01:25:46;;;;;;;4.67;2.83;;;8.80;1.00;;;;;;4961863;28;20206;-61
2023/10/25 01:28:13;;;;;;;6.77;2.70;;;8.70;1.00;;;;;;4960641;28;20199;-63
2023/10/25 01:30:40;;;;;;;3.97;2.40;;;8.70;1.00;;;;;;4961734;28;20195;-64
2023/10/25 01:33:09;;;;;;;3.10;2.40;;;8.70;1.00;;;;;;4972729;28;21030;-61
2023/10/25 01:35:38;;;;;;;3.53;2.50;;;8.60;1.00;;;;;;4948568;28;20286;-62
2023/10/25 01:38:05;;;;;;;4.00;2.60;;;8.50;1.00;;;;;;4934813;29;20214;-61
2023/10/25 01:40:33;;;;;;;3.10;2.57;;;8.60;1.00;;;;;;4951330;28;20320;-61
2023/10/25 01:43:00;;;;;;;5.30;3.10;;;8.50;1.00;;;;;;4954529;29;20356;-62
2023/10/25 01:45:27;;;;;;;3.57;2.80;;;8.50;1.00;;;;;;4930661;28;20774;-61
2023/10/25 01:47:54;;;;;;;5.73;3.00;;;8.50;1.00;;;;;;4951861;28;20249;-62
2023/10/25 01:50:21;;;;;;;5.73;2.70;;;8.40;1.00;;;;;;4950316;28;20277;-62
2023/10/25 01:52:48;;;;;;;7.23;3.20;;;8.40;1.00;;;;;;4945879;29;20191;-62
2023/10/25 01:55:16;;;;;;;4.37;2.23;;;8.30;1.00;;;;;;4952378;29;20198;-61
2023/10/25 01:57:44;;;;;;;4.57;2.60;;;8.20;1.00;;;;;;4947674;28;20236;-62
2023/10/25 02:00:11;;;;;;;4.33;2.53;;;8.30;1.00;;;;;;4966827;28;20210;-62
2023/10/25 02:06:21;;;;;;;3.63;2.90;;;8.30;1.00;;;;;;4950877;29;20648;-61
2023/10/25 02:08:48;;;;;;;3.07;2.37;;;8.20;1.00;;;;;;4948189;28;20230;-61
2023/10/25 02:11:20;;;;;;;3.23;2.83;;;8.10;1.00;;;;;;4931209;29;20266;-62
2023/10/25 02:13:47;;;;;;;2.73;2.47;;;8.10;1.00;;;;;;4944240;29;20189;-63
2023/10/25 02:16:15;;;;;;;3.40;2.70;;;8.00;1.00;;;;;;4951677;28;20210;-62
2023/10/25 02:18:43;;;;;;;3.43;2.80;;;8.00;1.00;;;;;;4945938;28;20239;-61
2023/10/25 02:21:11;;;;;;;5.80;3.10;;;8.00;1.00;;;;;;4965927;28;20226;-61
2023/10/25 02:23:39;;;;;;;9.70;2.93;;;8.00;1.00;;;;;;4951280;29;20223;-61
2023/10/25 02:26:06;;;;;;;4.07;2.93;;;7.90;1.00;;;;;;4936182;29;20258;-63
2023/10/25 02:28:33;;;;;;;3.60;2.90;;;7.90;1.00;;;;;;4935317;28;20218;-62
2023/10/25 02:31:01;;;;;;;12.97;3.80;;;7.90;1.00;;;;;;4951393;28;20203;-62
2023/10/25 02:33:28;;;;;;;6.20;3.30;;;7.90;1.00;;;;;;4948026;29;20199;-62
2023/10/25 02:35:55;;;;;;;5.80;3.70;;;7.90;1.00;;;;;;4932250;29;20210;-62
2023/10/25 02:38:22;;;;;;;4.00;3.30;;;8.00;1.00;;;;;;4949976;28;20219;-62
2023/10/25 02:40:49;;;;;;;4.20;3.23;;;7.90;1.00;;;;;;4951784;28;20684;-62
2023/10/25 02:43:16;;;;;;;5.03;3.20;;;8.00;1.00;;;;;;4947763;28;20239;-62
2023/10/25 02:45:43;;;;;;;6.13;3.70;;;8.00;1.00;;;;;;4955025;28;20218;-62
2023/10/25 02:48:16;;;;;;;5.80;3.90;;;8.10;1.00;;;;;;4963409;28;20289;-60
2023/10/25 02:50:43;;;;;;;5.80;3.60;;;7.90;1.00;;;;;;4950857;29;20202;-62
2023/10/25 02:53:10;;;;;;;4.07;3.17;;;7.90;1.00;;;;;;4949139;29;20202;-62
2023/10/25 02:55:37;;;;;;;5.60;3.87;;;7.80;1.00;;;;;;4936458;28;20200;-63
2023/10/25 02:58:04;;;;;;;7.30;3.80;;;7.80;1.00;;;;;;4944286;29;20664;-61
2023/10/25 03:00:31;;;;;;;4.53;3.57;;;7.70;1.00;;;;;;4951393;28;20206;-63
2023/10/25 03:02:58;;;;;;;5.87;3.70;;;7.70;1.00;;;;;;4948593;28;20210;-62
2023/10/25 03:05:25;;;;;;;6.07;3.73;;;7.80;1.00;;;;;;4948228;29;21697;-63
2023/10/25 03:07:52;;;;;;;6.90;3.17;;;7.70;1.00;;;;;;4965931;28;20333;-66
2023/10/25 03:10:20;;;;;;;11.10;3.80;;;7.80;1.00;;;;;;4950968;28;20210;-61
2023/10/25 03:12:48;;;;;;;9.17;3.67;;;7.90;1.00;;;;;;4943761;28;20215;-62
2023/10/25 03:15:15;;;;;;;5.27;3.57;;;7.90;1.00;;;;;;4934021;29;20601;-62
2023/10/25 03:17:42;;;;;;;7.53;3.87;;;8.00;1.00;;;;;;4933033;28;20611;-62
2023/10/25 03:20:10;;;;;;;5.33;3.17;;;7.90;1.00;;;;;;4950828;29;20270;-61
2023/10/25 03:22:37;;;;;;;6.00;3.63;;;7.90;1.00;;;;;;4961826;28;20583;-61
2023/10/25 03:25:05;;;;;;;6.03;3.70;;;7.90;1.00;;;;;;4942432;28;20238;-61
2023/10/25 03:27:33;;;;;;;42.40;17.90;;;7.80;1.00;;;;;;4948447;28;20281;-61
2023/10/25 03:30:00;;;;;;;11.47;6.80;;;7.70;1.00;;;;;;4948673;28;20227;-62
2023/10/25 03:32:27;;;;;;;4.47;3.77;;;7.70;1.00;;;;;;4928950;28;20209;-61
2023/10/25 03:34:54;;;;;;;7.33;4.07;;;7.70;1.00;;;;;;4962178;28;20207;-61
2023/10/25 03:37:21;;;;;;;4.77;3.50;;;7.80;1.00;;;;;;4934326;29;20195;-61
2023/10/25 03:39:49;;;;;;;4.73;3.50;;;8.00;1.00;;;;;;4929755;29;20204;-61
2023/10/25 03:42:16;;;;;;;5.37;3.77;;;8.00;1.00;;;;;;4950387;28;20397;-61
2023/10/25 03:44:43;;;;;;;5.80;3.60;;;8.10;1.00;;;;;;4949674;28;20199;-61
2023/10/25 03:47:10;;;;;;;4.53;3.63;;;8.10;1.00;;;;;;4949235;28;20205;-61
2023/10/25 03:49:37;;;;;;;8.47;4.10;;;8.10;1.00;;;;;;4950255;28;20195;-61
2023/10/25 03:52:04;;;;;;;8.00;4.03;;;8.00;1.00;;;;;;4961511;28;20234;-62
2023/10/25 03:54:36;;;;;;;5.43;4.03;;;8.00;1.00;;;;;;4932713;28;20258;-62
2023/10/25 03:57:03;;;;;;;6.43;4.77;;;8.10;1.00;;;;;;4949477;28;20203;-62
2023/10/25 03:59:29;;;;;;;4.73;3.53;;;8.20;1.00;;;;;;4947609;28;20219;-61
2023/10/25 04:01:57;;;;;;;5.30;3.90;;;8.20;1.00;;;;;;4950266;28;20250;-61
2023/10/25 04:04:24;;;;;;;6.10;4.23;;;8.20;1.00;;;;;;4933499;29;20202;-61
2023/10/25 04:06:51;;;;;;;6.53;3.97;;;8.20;1.00;;;;;;4936382;29;20295;-61
2023/10/25 04:09:18;;;;;;;8.17;4.60;;;8.20;1.00;;;;;;4942803;28;20199;-62
2023/10/25 04:11:45;;;;;;;6.27;4.13;;;8.10;1.00;;;;;;4946070;28;20242;-62
2023/10/25 04:14:12;;;;;;;7.50;3.73;;;8.10;1.00;;;;;;4948065;28;20762;-62
2023/10/25 04:16:39;;;;;;;6.73;4.43;;;8.10;1.00;;;;;;4948347;28;20947;-61
2023/10/25 04:19:06;;;;;;;10.50;4.37;;;8.00;1.00;;;;;;4926570;29;20215;-62
2023/10/25 04:21:33;;;;;;;6.73;4.50;;;8.10;1.00;;;;;;4946872;28;20183;-62
2023/10/25 04:24:01;;;;;;;6.20;4.03;;;8.00;1.00;;;;;;4949105;28;20195;-62
2023/10/25 04:26:28;;;;;;;6.30;4.40;;;8.00;1.00;;;;;;4929851;29;20682;-62
2023/10/25 04:28:55;;;;;;;9.20;4.70;;;8.00;1.00;;;;;;4947174;28;20656;-62
2023/10/25 04:31:22;;;;;;;6.90;4.53;;;8.00;1.00;;;;;;4950077;28;20195;-63
2023/10/25 04:33:49;;;;;;;5.40;4.13;;;8.00;1.00;;;;;;4948246;28;20277;-62
2023/10/25 04:36:16;;;;;;;16.23;4.90;;;7.90;1.00;;;;;;4928316;28;20194;-61
2023/10/25 04:38:43;;;;;;;6.73;4.23;;;8.00;1.00;;;;;;4926239;29;20684;-62
2023/10/25 04:41:10;;;;;;;5.47;4.20;;;8.00;1.00;;;;;;4948126;28;20795;-62
2023/10/25 04:43:37;;;;;;;6.97;4.10;;;8.00;1.00;;;;;;4973052;28;20712;-62
2023/10/25 04:46:04;;;;;;;13.33;5.20;;;8.00;1.00;;;;;;4951167;28;20575;-62
2023/10/25 04:48:31;;;;;;;7.13;4.60;;;7.90;1.00;;;;;;4945200;28;20685;-62
2023/10/25 04:50:58;;;;;;;11.47;4.47;;;7.90;1.00;;;;;;4949091;28;20199;-62
2023/10/25 04:53:25;;;;;;;11.90;4.77;;;7.90;1.00;;;;;;4937222;28;20302;-62
2023/10/25 04:55:52;;;;;;;7.57;4.50;;;7.90;1.00;;;;;;4952105;28;20541;-64
2023/10/25 04:58:20;;;;;;;8.20;4.30;;;7.90;1.00;;;;;;4959953;28;20292;-62
2023/10/25 05:00:48;;;;;;;6.63;4.70;;;7.90;1.00;;;;;;4949216;28;20199;-62
2023/10/25 05:03:15;;;;;;;6.17;4.53;;;7.90;1.00;;;;;;4963689;28;20533;-62
2023/10/25 05:05:42;;;;;;;7.83;4.20;;;7.90;1.00;;;;;;4949944;28;20212;-62
2023/10/25 05:08:09;;;;;;;7.47;4.40;;;7.90;1.00;;;;;;4967799;28;20206;-61
2023/10/25 05:10:37;;;;;;;6.10;4.63;;;7.90;1.00;;;;;;4946639;28;20277;-62
2023/10/25 05:13:04;;;;;;;5.57;4.03;;;7.90;1.00;;;;;;4949695;29;20195;-62
2023/10/25 05:15:35;;;;;;;8.50;4.17;;;7.90;1.00;;;;;;4949541;28;20199;-62
2023/10/25 05:18:02;;;;;;;5.87;4.40;;;7.90;1.00;;;;;;4949830;28;20583;-62
2023/10/25 05:20:30;;;;;;;5.87;4.33;;;7.90;1.00;;;;;;4932773;29;20508;-62
2023/10/25 05:23:02;;;;;;;7.83;4.73;;;7.90;1.00;;;;;;4936542;28;20195;-62
2023/10/25 05:25:29;;;;;;;11.37;4.60;;;7.90;1.00;;;;;;4948322;29;20286;-62
2023/10/25 05:27:56;;;;;;;11.33;4.87;;;7.90;1.00;;;;;;4949633;28;20226;-62
2023/10/25 05:30:23;;;;;;;8.37;5.00;;;7.90;1.00;;;;;;4955088;28;20210;-59
2023/10/25 05:32:53;;;;;;;7.80;4.57;;;7.90;1.00;;;;;;4938237;29;20202;-60
2023/10/25 05:35:20;;;;;;;9.83;5.27;;;8.00;1.00;;;;;;4945886;29;20301;-60
2023/10/25 05:37:48;;;;;;;7.93;4.70;;;8.00;1.00;;;;;;4946239;28;20660;-60
2023/10/25 05:40:15;;;;;;;7.80;4.90;;;8.00;1.00;;;;;;4940086;28;20253;-60
2023/10/25 05:42:49;;;;;;;7.43;5.13;;;7.90;1.00;;;;;;4931623;29;20234;-60
2023/10/25 05:45:16;;;;;;;6.97;5.10;;;7.80;1.00;;;;;;4943434;28;20202;-59
2023/10/25 05:47:43;;;;;;;5.97;4.17;;;7.90;1.00;;;;;;4948447;28;20223;-60
2023/10/25 05:50:11;;;;;;;9.63;4.80;;;7.90;1.00;;;;;;4949151;28;20629;-61
2023/10/25 05:52:44;;;;;;;6.93;4.77;;;7.90;1.00;;;;;;4953582;28;20262;-60
2023/10/25 05:55:15;;;;;;;14.33;4.93;;;7.90;1.00;;;;;;4954059;28;20599;-60
2023/10/25 05:57:45;;;;;;;7.93;5.17;;;7.90;1.00;;;;;;4970672;28;20186;-60
2023/10/25 06:00:13;;;;;;;72.83;52.60;;;7.80;1.00;;;;;;4951901;28;20328;-60
2023/10/25 06:02:43;;;;;;;8.57;5.37;;;7.80;1.00;;;;;;4946213;28;20710;-60
2023/10/25 06:05:12;;;;;;;8.47;5.50;;;7.80;1.00;;;;;;4948905;28;20676;-59
2023/10/25 06:07:40;;;;;;;10.83;6.30;;;7.80;1.00;;;;;;4949550;28;20186;-60
2023/10/25 06:10:09;;;;;;;11.07;6.00;;;7.80;1.00;;;;;;4947041;28;20215;-60
2023/10/25 06:12:36;;;;;;;6.27;5.17;;;7.80;1.00;;;;;;4953527;28;20285;-60
2023/10/25 06:15:04;;;;;;;9.70;5.03;;;7.80;1.00;;;;;;4956786;28;20226;-60
2023/10/25 06:17:31;;;;;;;10.97;5.27;;;7.90;1.00;;;;;;4954245;28;20643;-60
2023/10/25 06:19:59;;;;;;;8.87;5.17;;;8.10;1.00;;;;;;4954631;28;20293;-60
2023/10/25 06:22:27;;;;;;;6.70;5.30;;;8.10;1.00;;;;;;4955015;28;20249;-60
2023/10/25 06:24:55;;;;;;;11.57;5.53;;;8.20;1.00;;;;;;4954297;28;20715;-60
2023/10/25 06:27:24;;;;;;;9.87;5.37;;;8.30;1.00;;;;;;4959656;28;20281;-61
2023/10/25 06:29:51;;;;;;;12.60;5.27;;;8.40;1.00;;;;;;4943270;28;20209;-61
2023/10/25 06:32:18;;;;;;;7.43;5.17;;;8.50;1.00;;;;;;4974674;28;20201;-60
2023/10/25 06:34:45;;;;;;;8.47;6.50;;;8.50;1.00;;;;;;4944401;28;20194;-60
2023/10/25 06:37:13;;;;;;;11.03;5.10;;;8.50;1.00;;;;;;4942246;28;20663;-60
2023/10/25 06:39:40;;;;;;;9.57;4.50;;;8.60;1.00;;;;;;4938002;28;20251;-63
2023/10/25 06:42:07;;;;;;;7.20;4.27;;;8.60;1.00;;;;;;4948577;28;20234;-62
2023/10/25 06:44:36;;;;;;;6.70;5.07;;;8.70;1.00;;;;;;4938127;29;20203;-62
2023/10/25 06:47:05;;;;;;;6.43;4.47;;;8.80;1.00;;;;;;4953617;28;20191;-62
2023/10/25 06:49:33;;;;;;;12.73;5.40;;;8.80;99.90;;;;;;4953585;28;20190;-62
2023/10/25 06:52:00;;;;;;;10.77;4.53;;;8.90;99.90;;;;;;4957487;28;20693;-62
2023/10/25 06:54:28;;;;;;;5.17;4.07;;;8.90;99.90;;;;;;4962815;28;20214;-62
2023/10/25 06:56:55;;;;;;;9.60;4.67;;;9.00;99.90;;;;;;4946573;28;20735;-62
2023/10/25 06:59:22;;;;;;;10.60;4.03;;;9.10;99.90;;;;;;4945963;28;20219;-62
2023/10/25 07:02:09;;;;;;;6.20;4.10;;;9.10;99.90;;;;;;4951512;28;20648;-62
2023/10/25 07:04:37;;;;;;;6.43;3.87;;;9.10;99.90;;;;;;4965901;28;20834;-66
2023/10/25 07:07:09;;;;;;;8.17;4.27;;;9.20;99.90;;;;;;4935694;29;20195;-62
2023/10/25 07:09:36;;;;;;;5.80;3.93;;;9.20;99.90;;;;;;4954008;28;20203;-63
2023/10/25 07:12:04;;;;;;;6.63;3.93;;;9.30;99.90;;;;;;4934320;29;20644;-62
2023/10/25 07:14:31;;;;;;;7.13;4.03;;;9.30;99.90;;;;;;4951938;29;20191;-62
2023/10/25 07:16:58;;;;;;;5.67;3.70;;;9.40;99.90;;;;;;4950152;28;20191;-64
2023/10/25 07:19:26;;;;;;;3.53;3.23;;;9.40;99.90;;;;;;4951628;29;20211;-62
2023/10/25 07:21:53;;;;;;;9.63;3.47;;;9.20;99.90;;;;;;4950893;28;20354;-63
2023/10/25 07:24:20;;;;;;;6.23;3.83;;;9.30;99.90;;;;;;4948231;29;20652;-63
2023/10/25 07:26:47;;;;;;;3.93;3.30;;;9.30;99.90;;;;;;4934605;29;20571;-64
2023/10/25 07:29:14;;;;;;;8.30;3.80;;;9.40;99.90;;;;;;4944068;28;20765;-60
2023/10/25 07:31:41;;;;;;;6.47;4.13;;;9.60;99.90;;;;;;4950730;28;20749;-60
2023/10/25 07:34:08;;;;;;;4.33;3.43;;;9.70;99.90;;;;;;4950751;29;20346;-61
2023/10/25 07:36:35;;;;;;;5.07;3.70;;;9.80;99.90;;;;;;4950123;29;20195;-61
2023/10/25 07:39:01;;;;;;;11.23;3.93;;;9.90;99.90;;;;;;4948489;29;20222;-62
2023/10/25 07:41:28;;;;;;;4.03;2.97;;;10.00;99.90;;;;;;4950259;29;21620;-62
2023/10/25 07:43:55;;;;;;;6.93;2.90;;;10.10;99.90;;;;;;4950979;29;20239;-62
2023/10/25 07:46:22;;;;;;;6.50;2.87;;;10.20;99.90;;;;;;4933244;28;20655;-61
2023/10/25 07:48:50;;;;;;;5.80;3.33;;;10.40;99.90;;;;;;4951081;29;20201;-65
2023/10/25 07:51:17;;;;;;;7.70;3.23;;;10.60;99.90;;;;;;4950132;29;20203;-65
2023/10/25 07:53:44;;;;;;;5.03;2.47;;;10.90;99.90;;;;;;4947365;28;20257;-65
2023/10/25 07:56:11;;;;;;;8.13;2.80;;;10.90;99.90;;;;;;4934133;29;20270;-64
2023/10/25 07:58:41;;;;;;;3.20;2.67;;;11.00;99.90;;;;;;4949046;29;20208;-64
2023/10/25 08:01:10;;;;;;;4.27;2.77;;;11.30;99.90;;;;;;4950581;29;20278;-64
2023/10/25 08:03:37;;;;;;;4.03;2.13;;;11.40;99.90;;;;;;4964514;28;20662;-64
2023/10/25 08:06:09;;;;;;;3.20;2.23;;;11.50;99.90;;;;;;4933945;29;20681;-64
2023/10/25 08:08:36;;;;;;;4.23;2.30;;;11.60;99.90;;;;;;4949647;29;20198;-65
2023/10/25 08:11:05;;;;;;;4.60;2.50;;;11.50;99.90;;;;;;4949085;29;20603;-65
2023/10/25 08:13:34;;;;;;;2.67;2.20;;;11.50;99.90;;;;;;4943002;28;20214;-65
2023/10/25 08:16:02;;;;;;;5.83;3.13;;;11.50;99.90;;;;;;4930324;29;20562;-64
2023/10/25 08:18:30;;;;;;;4.03;2.20;;;11.60;99.90;;;;;;4937006;29;20608;-64
2023/10/25 08:20:58;;;;;;;2.20;1.90;;;11.80;99.90;;;;;;4948705;29;20559;-64
2023/10/25 08:23:27;;;;;;;4.17;2.20;;;12.10;99.90;;;;;;4952379;28;20556;-63
2023/10/25 08:26:00;;;;;;;3.50;2.03;;;12.40;99.90;;;;;;4935528;29;20203;-64
2023/10/25 08:28:27;;;;;;;2.10;1.90;;;12.70;99.90;;;;;;4941730;29;20712;-65
2023/10/25 08:30:54;;;;;;;2.13;1.70;;;12.80;99.90;;;;;;4944918;28;20207;-64
2023/10/25 08:33:21;;;;;;;4.38;2.25;;;12.70;99.90;;;;;;4948355;29;20282;-64
2023/10/25 08:35:48;;;;;;;6.40;2.00;;;12.90;99.90;;;;;;4945080;28;20206;-64
2023/10/25 08:38:15;;;;;;;1.55;1.40;;;13.00;99.90;;;;;;4948477;29;20710;-62
2023/10/25 08:40:44;;;;;;;5.67;2.23;;;12.80;99.90;;;;;;4948331;28;20229;-62
2023/10/25 08:43:16;;;;;;;2.22;2.03;;;12.50;99.90;;;;;;4943830;29;20644;-63
2023/10/25 08:45:44;;;;;;;4.00;1.40;;;12.50;99.90;;;;;;4948718;29;20836;-61
2023/10/25 08:48:11;;;;;;;1.80;1.48;;;12.60;99.90;;;;;;4960641;28;20578;-62
2023/10/25 08:50:39;;;;;;;3.55;1.70;;;13.00;99.90;;;;;;4950003;29;20218;-61
2023/10/25 08:53:06;;;;;;;2.85;1.50;;;13.70;99.90;;;;;;4948816;29;20470;-61
2023/10/25 08:55:34;;;;;;;1.55;1.38;;;13.80;99.90;;;;;;4950477;28;20594;-61
2023/10/25 08:58:01;;;;;;;2.28;1.90;;;13.80;99.90;;;;;;4947751;28;20202;-62
2023/10/25 09:00:30;;;;;;;1.85;1.60;;;13.40;99.90;;;;;;4946809;29;20215;-63
2023/10/25 09:03:33;;;;;;;2.70;1.80;;;12.90;99.90;;;;;;4947334;28;20731;-64
2023/10/25 09:06:06;;;;;;;3.20;1.58;;;12.50;99.90;;;;;;4949630;28;20206;-64
2023/10/25 09:08:35;;;;;;;1.67;1.40;;;12.40;99.90;;;;;;4949342;29;20202;-63
2023/10/25 09:11:08;;;;;;;4.60;1.60;;;12.40;99.90;;;;;;4949936;28;20222;-64
2023/10/25 09:13:43;;;;;;;3.93;1.50;;;12.40;99.90;;;;;;4947130;28;20191;-64
2023/10/25 09:16:12;;;;;;;1.50;1.40;;;12.40;99.90;;;;;;4948042;29;20186;-64
2023/10/25 09:18:40;;;;;;;2.40;1.50;;;12.50;99.90;;;;;;4961544;28;20203;-63
2023/10/25 09:21:10;;;;;;;2.20;1.63;;;12.70;99.90;;;;;;4961145;28;20558;-63
2023/10/25 09:23:40;;;;;;;7.40;1.52;;;13.50;99.90;;;;;;4926969;28;20207;-64
2023/10/25 09:26:15;;;;;;;2.20;1.73;;;14.60;99.90;;;;;;4943400;29;20250;-65
2023/10/25 09:28:45;;;;;;;2.78;1.60;;;16.10;99.90;;;;;;4943599;28;20210;-63
2023/10/25 09:31:26;;;;;;;2.42;1.30;;;16.70;99.90;;;;;;4943607;28;20202;-67
2023/10/25 09:33:57;;;;;;;7.70;1.65;;;16.70;99.90;;;;;;4951786;28;20501;-64
2023/10/25 09:36:25;;;;;;;3.55;1.48;;;17.50;99.90;;;;;;4949673;28;20629;-64
2023/10/25 09:38:53;;;;;;;1.63;1.40;;;19.00;99.90;;;;;;4925045;29;20589;-64
2023/10/25 09:41:20;;;;;;;2.70;1.50;;;18.00;99.90;;;;;;4930199;29;20278;-70
2023/10/25 09:43:49;;;;;;;6.10;1.88;;;18.00;99.90;;;;;;4944792;28;20714;-64
2023/10/25 09:46:20;;;;;;;2.58;1.70;;;19.90;99.90;;;;;;4947083;28;20261;-64
2023/10/25 09:49:08;;;;;;;2.55;1.70;;;21.40;99.90;;;;;;4940569;28;20589;-65
2023/10/25 09:52:07;;;;;;;3.50;2.38;;;22.00;99.90;;;;;;4946921;28;20620;-66
2023/10/25 09:54:45;;;;;;;2.25;1.65;;;18.40;99.90;;;;;;4934305;29;20285;-64
2023/10/25 09:57:14;;;;;;;1.85;1.73;;;17.90;99.90;;;;;;4951094;29;20194;-64
2023/10/25 09:59:42;;;;;;;4.20;1.50;;;16.50;99.90;;;;;;4936581;28;20203;-64
2023/10/25 10:02:20;;;;;;;1.65;1.55;;;15.30;99.90;;;;;;4951338;28;20702;-66
2023/10/25 10:04:56;;;;;;;2.05;1.80;;;14.90;99.90;;;;;;4967122;28;20187;-68
2023/10/25 10:07:36;;;;;;;4.18;2.10;;;15.30;99.90;;;;;;4953837;28;20518;-66
2023/10/25 10:10:14;;;;;;;2.97;1.90;;;15.30;99.90;;;;;;4951473;29;20207;-71
2023/10/25 10:12:41;;;;;;;7.22;2.05;;;15.60;99.90;;;;;;4931155;28;20227;-66
2023/10/25 10:15:12;;;;;;;3.63;2.20;;;15.20;99.90;;;;;;4945907;28;20214;-65
2023/10/25 10:17:43;;;;;;;3.15;1.67;;;14.70;99.90;;;;;;4951593;28;20207;-64
2023/10/25 10:20:27;;;;;;;2.85;1.65;;;14.50;99.90;;;;;;4951659;28;20222;-64
2023/10/25 10:23:04;;;;;;;2.75;1.77;;;14.10;99.90;;;;;;4960322;28;20322;-64
2023/10/25 10:25:47;;;;;;;6.03;1.75;;;13.80;99.90;;;;;;4948027;28;20223;-64
2023/10/25 10:28:14;;;;;;;6.57;2.55;;;13.90;99.90;;;;;;4965383;28;20217;-67
2023/10/25 10:30:42;;;;;;;2.45;1.77;;;13.70;99.90;;;;;;4951203;28;20550;-64
2023/10/25 10:33:12;;;;;;;3.13;2.35;;;13.70;99.90;;;;;;4960674;28;20229;-64
2023/10/25 10:35:49;;;;;;;5.50;2.22;;;13.50;99.90;;;;;;4955139;28;20199;-64
2023/10/25 10:38:16;;;;;;;3.60;2.22;;;13.60;99.90;;;;;;4936400;29;20230;-63
2023/10/25 10:40:49;;;;;;;7.15;1.67;;;13.60;99.90;;;;;;4951095;28;20207;-68
2023/10/25 10:43:16;;;;;;;2.20;1.77;;;13.80;99.90;;;;;;4916008;29;20246;-63
2023/10/25 10:45:44;;;;;;;3.47;2.00;;;13.80;99.90;;;;;;4935175;28;20225;-63
2023/10/25 10:48:20;;;;;;;9.15;1.60;;;13.90;99.90;;;;;;4961327;28;20199;-65
2023/10/25 10:50:49;;;;;;;2.08;1.83;;;13.90;99.90;;;;;;4950485;28;20269;-64
2023/10/25 10:53:16;;;;;;;2.88;1.98;;;14.00;99.90;;;;;;4954294;28;20199;-65
2023/10/25 10:55:45;;;;;;;1.58;1.48;;;14.20;99.90;;;;;;4933274;29;20202;-66
2023/10/25 10:58:13;;;;;;;7.18;1.80;;;14.20;99.90;;;;;;4945575;28;20529;-63
2023/10/25 11:00:44;;;;;;;3.63;2.17;;;14.30;99.90;;;;;;4965589;28;20208;-63
2023/10/25 11:03:12;;;;;;;3.15;2.03;;;14.20;99.90;;;;;;4961739;28;20218;-61
2023/10/25 11:05:39;;;;;;;1.52;1.42;;;14.00;99.90;;;;;;4944047;28;20558;-63
2023/10/25 11:08:14;;;;;;;3.80;2.15;;;14.00;99.90;;;;;;4950128;28;20195;-63
2023/10/25 11:10:41;;;;;;;1.73;1.63;;;14.00;99.90;;;;;;4951709;28;20277;-63
2023/10/25 11:13:09;;;;;;;2.38;2.10;;;14.10;99.90;;;;;;4964820;28;20316;-63
2023/10/25 11:15:36;;;;;;;2.40;1.50;;;14.20;99.90;;;;;;4945454;28;20710;-63
2023/10/25 11:18:07;;;;;;;3.92;1.90;;;14.10;99.90;;;;;;4941966;29;20209;-61
2023/10/25 11:20:34;;;;;;;6.55;2.08;;;14.10;99.90;;;;;;4948440;28;20238;-64
2023/10/25 11:23:05;;;;;;;3.90;1.50;;;14.20;99.90;;;;;;4947267;28;20563;-75
2023/10/25 11:25:32;;;;;;;5.20;1.80;;;14.20;99.90;;;;;;4945277;28;20201;-63
2023/10/25 11:27:59;;;;;;;2.25;1.85;;;14.30;99.90;;;;;;4962357;28;20293;-62
2023/10/25 11:30:26;;;;;;;2.63;1.85;;;14.30;99.90;;;;;;4928708;28;20211;-63
2023/10/25 11:32:54;;;;;;;6.03;2.00;;;14.30;99.90;;;;;;4948774;28;20273;-62
2023/10/25 11:35:28;;;;;;;2.88;1.63;;;14.30;99.90;;;;;;4949874;28;20203;-62
2023/10/25 11:37:56;;;;;;;5.05;1.80;;;14.20;99.90;;;;;;4946954;28;20599;-62
2023/10/25 11:40:45;;;;;;;6.55;2.67;;;14.30;99.90;;;;;;4931873;29;20207;-63
2023/10/25 11:43:13;;;;;;;1.90;1.70;;;14.20;99.90;;;;;;4961996;28;20684;-62
2023/10/25 11:45:41;;;;;;;3.75;1.63;;;14.00;99.90;;;;;;4948971;28;20607;-62
2023/10/25 11:48:09;;;;;;;5.88;1.90;;;14.00;99.90;;;;;;4960639;28;20219;-63
2023/10/25 11:50:37;;;;;;;2.08;1.88;;;13.80;99.90;;;;;;4950758;28;20191;-63
2023/10/25 11:53:04;;;;;;;2.55;2.35;;;13.80;99.90;;;;;;4946637;28;20198;-62
2023/10/25 11:55:31;;;;;;;5.00;1.98;;;13.70;99.90;;;;;;4949094;28;20211;-63
2023/10/25 11:57:59;;;;;;;4.57;2.20;;;13.60;99.90;;;;;;4957800;28;20203;-62
2023/10/25 12:00:26;;;;;;;2.72;2.30;;;13.60;99.90;;;;;;4948458;28;20297;-64
2023/10/25 12:02:53;;;;;;;3.90;1.92;;;13.30;99.90;;;;;;4945116;28;20294;-61
2023/10/25 12:05:21;;;;;;;8.45;3.15;;;13.20;99.90;;;;;;4948025;28;20278;-64
2023/10/25 12:07:49;;;;;;;3.83;1.83;;;12.80;99.90;;;;;;4950247;28;20588;-62
2023/10/25 12:10:17;;;;;;;3.30;2.10;;;12.60;99.90;;;;;;4949448;28;20557;-62
2023/10/25 12:12:44;;;;;;;2.40;2.20;;;12.50;99.90;;;;;;4947700;28;20226;-63
2023/10/25 12:15:11;;;;;;;5.57;2.20;;;12.40;99.90;;;;;;4949734;28;20282;-64
2023/10/25 12:17:38;;;;;;;4.30;2.53;;;12.10;99.90;;;;;;4950090;28;20199;-62
2023/10/25 12:20:06;;;;;;;2.37;1.87;;;11.90;99.90;;;;;;4949337;28;20305;-62
2023/10/25 12:22:54;;;;;;;3.47;1.93;;;11.80;99.90;;;;;;4947110;28;20257;-62
2023/10/25 12:25:21;;;;;;;5.03;2.00;;;11.70;99.90;;;;;;4935909;28;20277;-62
2023/10/25 12:27:48;;;;;;;5.90;2.20;;;11.50;99.90;;;;;;4948481;28;20210;-61
2023/10/25 12:30:15;;;;;;;6.67;3.77;;;11.40;99.90;;;;;;4931551;28;20288;-61
2023/10/25 12:32:42;;;;;;;7.77;3.93;;;11.20;1.00;;;;;;4951347;28;20191;-61
2023/10/25 12:35:09;;;;;;;5.50;2.60;;;11.00;1.00;;;;;;4952064;28;20199;-62
2023/10/25 12:37:36;;;;;;;3.50;2.13;;;11.00;1.00;;;;;;4936317;28;20299;-62
2023/10/25 12:40:04;;;;;;;2.60;2.27;;;10.90;1.00;;;;;;4952268;28;20341;-63
2023/10/25 12:42:31;;;;;;;3.00;2.30;;;10.80;99.90;;;;;;4941341;28;20231;-64
2023/10/25 12:44:58;;;;;;;3.67;2.30;;;10.80;1.00;;;;;;4931326;29;20195;-63
2023/10/25 12:47:25;;;;;;;3.20;2.40;;;10.80;99.90;;;;;;4927995;29;20541;-64
2023/10/25 12:49:52;;;;;;;6.47;2.40;;;10.70;99.90;;;;;;4928416;29;20319;-61
2023/10/25 12:52:19;;;;;;;4.07;2.30;;;10.80;99.90;;;;;;4933437;29;20290;-62
2023/10/25 12:54:46;;;;;;;5.83;3.47;;;10.70;99.90;;;;;;4929766;29;20283;-62
2023/10/25 12:57:13;;;;;;;4.50;2.70;;;10.60;99.90;;;;;;4927277;29;20600;-61
2023/10/25 12:59:40;;;;;;;4.87;3.00;;;10.70;99.90;;;;;;4927892;29;20211;-67
2023/10/25 13:02:07;;;;;;;7.63;3.87;;;10.70;99.90;;;;;;4931648;29;20187;-62
2023/10/25 13:04:34;;;;;;;0.40;0.40;;;10.60;99.90;;;;;;4930545;29;20219;-61
2023/10/25 13:07:02;;;;;;;0.40;0.40;;;10.60;99.90;;;;;;4933265;29;20660;-62